EZY21N EBBR-EDDF
Flight info
| Callsign | EZY21N |
|---|---|
| Flight time | 0h 39m |
| Altitude | 23000 |
| Route | SPI T180 NIVNU T847 IMCOM IMCOM1A |
| Aircraft | A320/M-SDE3FGHIRWY/LB1 |
Departure
| Time | 2026-04-14 08:43 |
|---|---|
| Airport | Brussels Airport (EBBR) |
Arrival
| Time | 2026-04-14 09:22 |
|---|---|
| Airport | Frankfurt Main Airport (EDDF) |
| Time | Latitude | Longitude | Altitude | Speed | Heading |
|---|---|---|---|---|---|
| 2026-04-14 08:13 | 50.90507 | 4.48958 | 119 ft | 0 kts | 155° |
| 2026-04-14 08:35 | 50.90519 | 4.48949 | 103 ft | 4 kts | 155° |
| 2026-04-14 08:35 | 50.90543 | 4.48931 | 124 ft | 4 kts | 153° |
| 2026-04-14 08:35 | 50.90567 | 4.48910 | 117 ft | 4 kts | 144° |
| 2026-04-14 08:36 | 50.90584 | 4.48883 | 117 ft | 4 kts | 102° |
| 2026-04-14 08:36 | 50.90585 | 4.48867 | 119 ft | 0 kts | 65° |
| 2026-04-14 08:38 | 50.90597 | 4.48909 | 119 ft | 9 kts | 65° |
| 2026-04-14 08:38 | 50.90631 | 4.49028 | 119 ft | 13 kts | 65° |
| 2026-04-14 08:38 | 50.90669 | 4.49158 | 119 ft | 14 kts | 65° |
| 2026-04-14 08:39 | 50.90711 | 4.49302 | 122 ft | 15 kts | 65° |
| 2026-04-14 08:39 | 50.90759 | 4.49466 | 120 ft | 18 kts | 65° |
| 2026-04-14 08:39 | 50.90814 | 4.49654 | 123 ft | 20 kts | 65° |
| 2026-04-14 08:39 | 50.90901 | 4.49775 | 122 ft | 18 kts | 19° |
| 2026-04-14 08:40 | 50.91005 | 4.49884 | 118 ft | 17 kts | 28° |
| 2026-04-14 08:40 | 50.91034 | 4.49906 | 119 ft | 0 kts | 23° |
| 2026-04-14 08:41 | 50.91069 | 4.49930 | 117 ft | 10 kts | 23° |
| 2026-04-14 08:41 | 50.91126 | 4.49920 | 118 ft | 8 kts | 316° |
| 2026-04-14 08:42 | 50.91121 | 4.49837 | 118 ft | 10 kts | 248° |
| 2026-04-14 08:42 | 50.91093 | 4.49731 | 117 ft | 31 kts | 246° |
| 2026-04-14 08:42 | 50.90858 | 4.48929 | 120 ft | 125 kts | 245° |
| 2026-04-14 08:42 | 50.90402 | 4.47346 | 312 ft | 179 kts | 247° |
| 2026-04-14 08:43 | 50.89993 | 4.45310 | 914 ft | 210 kts | 258° |
| 2026-04-14 08:43 | 50.89998 | 4.42870 | 1624 ft | 236 kts | 284° |
| 2026-04-14 08:43 | 50.90560 | 4.40325 | 2369 ft | 250 kts | 291° |
| 2026-04-14 08:43 | 50.91208 | 4.37738 | 3382 ft | 254 kts | 291° |
| 2026-04-14 08:44 | 50.91515 | 4.34998 | 4365 ft | 257 kts | 262° |
| 2026-04-14 08:44 | 50.90793 | 4.32421 | 5337 ft | 262 kts | 230° |
| 2026-04-14 08:44 | 50.89527 | 4.30338 | 6358 ft | 264 kts | 223° |
| 2026-04-14 08:44 | 50.88153 | 4.28376 | 6947 ft | 267 kts | 221° |
| 2026-04-14 08:45 | 50.86745 | 4.26458 | 7147 ft | 268 kts | 221° |
| 2026-04-14 08:45 | 50.85303 | 4.24586 | 7207 ft | 268 kts | 214° |
| 2026-04-14 08:45 | 50.83621 | 4.23335 | 7213 ft | 269 kts | 197° |
| 2026-04-14 08:45 | 50.81768 | 4.22975 | 7212 ft | 271 kts | 176° |
| 2026-04-14 08:46 | 50.79960 | 4.23773 | 7209 ft | 273 kts | 152° |
| 2026-04-14 08:46 | 50.78523 | 4.25714 | 7212 ft | 275 kts | 127° |
| 2026-04-14 08:46 | 50.77713 | 4.28450 | 7215 ft | 277 kts | 108° |
| 2026-04-14 08:46 | 50.77164 | 4.31330 | 7215 ft | 278 kts | 107° |
| 2026-04-14 08:47 | 50.76616 | 4.34257 | 7214 ft | 278 kts | 107° |
| 2026-04-14 08:47 | 50.76066 | 4.37186 | 7215 ft | 278 kts | 107° |
| 2026-04-14 08:47 | 50.75515 | 4.40115 | 7215 ft | 278 kts | 107° |
| 2026-04-14 08:47 | 50.74954 | 4.43088 | 7684 ft | 285 kts | 107° |
| 2026-04-14 08:48 | 50.74387 | 4.46071 | 8724 ft | 285 kts | 107° |
| 2026-04-14 08:48 | 50.73809 | 4.49090 | 9649 ft | 289 kts | 107° |
| 2026-04-14 08:48 | 50.73221 | 4.52153 | 10440 ft | 298 kts | 107° |
| 2026-04-14 08:48 | 50.72596 | 4.55407 | 10750 ft | 322 kts | 106° |
| 2026-04-14 08:49 | 50.71923 | 4.58911 | 11009 ft | 345 kts | 106° |
| 2026-04-14 08:49 | 50.71205 | 4.62643 | 11395 ft | 363 kts | 106° |
| 2026-04-14 08:49 | 50.70464 | 4.66484 | 12027 ft | 370 kts | 106° |
| 2026-04-14 08:49 | 50.69706 | 4.70396 | 12734 ft | 375 kts | 106° |
| 2026-04-14 08:50 | 50.68937 | 4.74357 | 13453 ft | 380 kts | 106° |
| 2026-04-14 08:50 | 50.68158 | 4.78377 | 14137 ft | 386 kts | 106° |
| 2026-04-14 08:50 | 50.67368 | 4.82445 | 14766 ft | 390 kts | 106° |
| 2026-04-14 08:50 | 50.66567 | 4.86553 | 15428 ft | 394 kts | 106° |
| 2026-04-14 08:51 | 50.65757 | 4.90695 | 16077 ft | 398 kts | 107° |
| 2026-04-14 08:51 | 50.64938 | 4.94877 | 16729 ft | 401 kts | 107° |
| 2026-04-14 08:51 | 50.64109 | 4.99104 | 17384 ft | 405 kts | 107° |
| 2026-04-14 08:51 | 50.63271 | 5.03362 | 18035 ft | 408 kts | 107° |
| 2026-04-14 08:52 | 50.62434 | 5.07601 | 18644 ft | 412 kts | 107° |
| 2026-04-14 08:52 | 50.61579 | 5.11923 | 19201 ft | 416 kts | 107° |
| 2026-04-14 08:52 | 50.60715 | 5.16287 | 19757 ft | 419 kts | 107° |
| 2026-04-14 08:52 | 50.59840 | 5.20681 | 20316 ft | 422 kts | 107° |
| 2026-04-14 08:53 | 50.58959 | 5.25108 | 20840 ft | 425 kts | 107° |
| 2026-04-14 08:53 | 50.58069 | 5.29573 | 21355 ft | 429 kts | 107° |
| 2026-04-14 08:53 | 50.57175 | 5.34068 | 21863 ft | 432 kts | 107° |
| 2026-04-14 08:53 | 50.56272 | 5.38594 | 22346 ft | 435 kts | 107° |
| 2026-04-14 08:54 | 50.55358 | 5.43157 | 22839 ft | 438 kts | 107° |
| 2026-04-14 08:54 | 50.54435 | 5.47750 | 23143 ft | 441 kts | 107° |
| 2026-04-14 08:54 | 50.53499 | 5.52383 | 23200 ft | 451 kts | 107° |
| 2026-04-14 08:54 | 50.52531 | 5.57145 | 23195 ft | 461 kts | 108° |
| 2026-04-14 08:55 | 50.51564 | 5.61886 | 23192 ft | 462 kts | 108° |
| 2026-04-14 08:55 | 50.50602 | 5.66716 | 23191 ft | 463 kts | 107° |
| 2026-04-14 08:55 | 50.49683 | 5.71562 | 23193 ft | 463 kts | 106° |
| 2026-04-14 08:55 | 50.48793 | 5.76417 | 23193 ft | 463 kts | 106° |
| 2026-04-14 08:56 | 50.47912 | 5.81276 | 23193 ft | 462 kts | 106° |
| 2026-04-14 08:56 | 50.47027 | 5.86127 | 23193 ft | 462 kts | 106° |
| 2026-04-14 08:56 | 50.46130 | 5.90980 | 23193 ft | 462 kts | 106° |
| 2026-04-14 08:56 | 50.45220 | 5.95831 | 23184 ft | 463 kts | 106° |
| 2026-04-14 08:57 | 50.44303 | 6.00669 | 23181 ft | 462 kts | 107° |
| 2026-04-14 08:57 | 50.43380 | 6.05504 | 23185 ft | 462 kts | 107° |
| 2026-04-14 08:57 | 50.42456 | 6.10332 | 23190 ft | 462 kts | 107° |
| 2026-04-14 08:57 | 50.41534 | 6.15148 | 23177 ft | 461 kts | 107° |
| 2026-04-14 08:58 | 50.40613 | 6.19963 | 23180 ft | 461 kts | 107° |
| 2026-04-14 08:58 | 50.39692 | 6.24769 | 23178 ft | 461 kts | 107° |
| 2026-04-14 08:58 | 50.38767 | 6.29577 | 23173 ft | 460 kts | 107° |
| 2026-04-14 08:58 | 50.37843 | 6.34381 | 23171 ft | 460 kts | 107° |
| 2026-04-14 08:59 | 50.36934 | 6.39116 | 23164 ft | 460 kts | 106° |
| 2026-04-14 08:59 | 50.36283 | 6.44021 | 23162 ft | 460 kts | 97° |
| 2026-04-14 08:59 | 50.35965 | 6.49069 | 23169 ft | 460 kts | 95° |
| 2026-04-14 08:59 | 50.35664 | 6.54052 | 23172 ft | 459 kts | 95° |
| 2026-04-14 09:00 | 50.35354 | 6.59025 | 23171 ft | 459 kts | 96° |
| 2026-04-14 09:00 | 50.35035 | 6.64000 | 23170 ft | 459 kts | 96° |
| 2026-04-14 09:00 | 50.34710 | 6.68974 | 23175 ft | 459 kts | 96° |
| 2026-04-14 09:00 | 50.34387 | 6.73878 | 23171 ft | 459 kts | 96° |
| 2026-04-14 09:01 | 50.34057 | 6.78908 | 23171 ft | 459 kts | 96° |
| 2026-04-14 09:01 | 50.33644 | 6.83795 | 23166 ft | 459 kts | 101° |
| 2026-04-14 09:01 | 50.32799 | 6.88612 | 23164 ft | 458 kts | 110° |
| 2026-04-14 09:01 | 50.31538 | 6.93183 | 23160 ft | 457 kts | 116° |
| 2026-04-14 09:02 | 50.30189 | 6.97685 | 22828 ft | 459 kts | 116° |
| 2026-04-14 09:02 | 50.28832 | 7.02219 | 21732 ft | 460 kts | 115° |
| 2026-04-14 09:02 | 50.27492 | 7.06701 | 21269 ft | 451 kts | 115° |
| 2026-04-14 09:02 | 50.26175 | 7.11113 | 20668 ft | 446 kts | 115° |
| 2026-04-14 09:03 | 50.24869 | 7.15489 | 20094 ft | 442 kts | 115° |
| 2026-04-14 09:03 | 50.23573 | 7.19822 | 19520 ft | 438 kts | 115° |
| 2026-04-14 09:03 | 50.22283 | 7.24114 | 18952 ft | 436 kts | 115° |
| 2026-04-14 09:03 | 50.20994 | 7.28376 | 18413 ft | 433 kts | 115° |
| 2026-04-14 09:04 | 50.19719 | 7.32606 | 17564 ft | 427 kts | 114° |
| 2026-04-14 09:04 | 50.18545 | 7.36855 | 16754 ft | 426 kts | 113° |
| 2026-04-14 09:04 | 50.17484 | 7.41161 | 15980 ft | 424 kts | 111° |
| 2026-04-14 09:04 | 50.16496 | 7.45473 | 15275 ft | 421 kts | 111° |
| 2026-04-14 09:05 | 50.15535 | 7.49770 | 14599 ft | 418 kts | 111° |
| 2026-04-14 09:05 | 50.14572 | 7.54027 | 13923 ft | 414 kts | 111° |
| 2026-04-14 09:05 | 50.13596 | 7.58231 | 13201 ft | 411 kts | 112° |
| 2026-04-14 09:05 | 50.12618 | 7.62343 | 13184 ft | 401 kts | 112° |
| 2026-04-14 09:06 | 50.11626 | 7.66399 | 13188 ft | 399 kts | 115° |
| 2026-04-14 09:06 | 50.10345 | 7.70216 | 13101 ft | 397 kts | 124° |
| 2026-04-14 09:06 | 50.08790 | 7.73750 | 12760 ft | 394 kts | 127° |
| 2026-04-14 09:06 | 50.07223 | 7.77251 | 12502 ft | 393 kts | 127° |
| 2026-04-14 09:07 | 50.05665 | 7.80734 | 12227 ft | 392 kts | 126° |
| 2026-04-14 09:07 | 50.04132 | 7.84172 | 11963 ft | 390 kts | 126° |
| 2026-04-14 09:07 | 50.02599 | 7.87657 | 11696 ft | 390 kts | 123° |
| 2026-04-14 09:07 | 50.01425 | 7.91458 | 11430 ft | 390 kts | 110° |
| 2026-04-14 09:08 | 50.00842 | 7.95574 | 11200 ft | 390 kts | 96° |
| 2026-04-14 09:08 | 50.00887 | 7.99776 | 11178 ft | 390 kts | 83° |
| 2026-04-14 09:08 | 50.01516 | 8.03882 | 11050 ft | 389 kts | 71° |
| 2026-04-14 09:08 | 50.02450 | 8.07758 | 10824 ft | 373 kts | 69° |
| 2026-04-14 09:09 | 50.03354 | 8.11437 | 10723 ft | 355 kts | 69° |
| 2026-04-14 09:09 | 50.04217 | 8.14947 | 10614 ft | 339 kts | 69° |
| 2026-04-14 09:09 | 50.05026 | 8.18259 | 10517 ft | 324 kts | 69° |
| 2026-04-14 09:09 | 50.05807 | 8.21473 | 10421 ft | 311 kts | 69° |
| 2026-04-14 09:10 | 50.06554 | 8.24560 | 10315 ft | 299 kts | 70° |
| 2026-04-14 09:10 | 50.07273 | 8.27540 | 10176 ft | 289 kts | 70° |
| 2026-04-14 09:10 | 50.07958 | 8.30394 | 10176 ft | 274 kts | 70° |
| 2026-04-14 09:10 | 50.08606 | 8.33097 | 10177 ft | 259 kts | 70° |
| 2026-04-14 09:11 | 50.09222 | 8.35662 | 10179 ft | 248 kts | 70° |
| 2026-04-14 09:11 | 50.09827 | 8.38173 | 10175 ft | 247 kts | 69° |
| 2026-04-14 09:11 | 50.10431 | 8.40678 | 10181 ft | 247 kts | 69° |
| 2026-04-14 09:11 | 50.11033 | 8.43182 | 10189 ft | 247 kts | 70° |
| 2026-04-14 09:12 | 50.11634 | 8.45684 | 10191 ft | 247 kts | 70° |
| 2026-04-14 09:12 | 50.12240 | 8.48206 | 10192 ft | 249 kts | 70° |
| 2026-04-14 09:12 | 50.12848 | 8.50742 | 10004 ft | 254 kts | 70° |
| 2026-04-14 09:12 | 50.13477 | 8.53366 | 9560 ft | 257 kts | 69° |
| 2026-04-14 09:13 | 50.14089 | 8.55928 | 9426 ft | 247 kts | 69° |
| 2026-04-14 09:13 | 50.14685 | 8.58429 | 9339 ft | 245 kts | 69° |
| 2026-04-14 09:13 | 50.15272 | 8.60904 | 9227 ft | 242 kts | 69° |
| 2026-04-14 09:13 | 50.15858 | 8.63372 | 9187 ft | 243 kts | 69° |
| 2026-04-14 09:14 | 50.16446 | 8.65851 | 9137 ft | 243 kts | 69° |
| 2026-04-14 09:14 | 50.17034 | 8.68321 | 9062 ft | 242 kts | 69° |
| 2026-04-14 09:14 | 50.17617 | 8.70773 | 8987 ft | 241 kts | 69° |
| 2026-04-14 09:14 | 50.18202 | 8.73235 | 8918 ft | 243 kts | 69° |
| 2026-04-14 09:15 | 50.18785 | 8.75696 | 8844 ft | 241 kts | 69° |
| 2026-04-14 09:15 | 50.19357 | 8.78107 | 8776 ft | 240 kts | 69° |
| 2026-04-14 09:15 | 50.19934 | 8.80554 | 8695 ft | 240 kts | 69° |
| 2026-04-14 09:15 | 50.20510 | 8.83005 | 8630 ft | 240 kts | 68° |
| 2026-04-14 09:16 | 50.21083 | 8.85446 | 8559 ft | 238 kts | 68° |
| 2026-04-14 09:16 | 50.21467 | 8.87980 | 8232 ft | 243 kts | 89° |
| 2026-04-14 09:16 | 50.21096 | 8.90532 | 7892 ft | 243 kts | 118° |
| 2026-04-14 09:16 | 50.20009 | 8.92517 | 7574 ft | 242 kts | 144° |
| 2026-04-14 09:17 | 50.18514 | 8.93672 | 7245 ft | 240 kts | 167° |
| 2026-04-14 09:17 | 50.16835 | 8.93930 | 6636 ft | 250 kts | 187° |
| 2026-04-14 09:17 | 50.15171 | 8.93125 | 6179 ft | 250 kts | 212° |
| 2026-04-14 09:17 | 50.13859 | 8.91432 | 5889 ft | 242 kts | 234° |
| 2026-04-14 09:18 | 50.13056 | 8.89183 | 5582 ft | 236 kts | 252° |
| 2026-04-14 09:18 | 50.12492 | 8.86782 | 5247 ft | 236 kts | 253° |
| 2026-04-14 09:18 | 50.11931 | 8.84378 | 4909 ft | 236 kts | 252° |
| 2026-04-14 09:18 | 50.11365 | 8.81969 | 4559 ft | 236 kts | 252° |
| 2026-04-14 09:19 | 50.10799 | 8.79568 | 4213 ft | 237 kts | 253° |
| 2026-04-14 09:19 | 50.10230 | 8.77159 | 3861 ft | 237 kts | 253° |
| 2026-04-14 09:19 | 50.09661 | 8.74753 | 3520 ft | 237 kts | 253° |
| 2026-04-14 09:19 | 50.09099 | 8.72376 | 3166 ft | 237 kts | 252° |
| 2026-04-14 09:20 | 50.08524 | 8.69946 | 2823 ft | 236 kts | 252° |
| 2026-04-14 09:20 | 50.07958 | 8.67562 | 2478 ft | 234 kts | 252° |
| 2026-04-14 09:20 | 50.07403 | 8.65225 | 2130 ft | 226 kts | 252° |
| 2026-04-14 09:20 | 50.06879 | 8.63022 | 1837 ft | 213 kts | 251° |
| 2026-04-14 09:21 | 50.06385 | 8.60949 | 1504 ft | 196 kts | 251° |
| 2026-04-14 09:21 | 50.05937 | 8.59067 | 1222 ft | 175 kts | 251° |
| 2026-04-14 09:21 | 50.05540 | 8.57405 | 995 ft | 155 kts | 251° |
| 2026-04-14 09:21 | 50.05182 | 8.55900 | 776 ft | 143 kts | 250° |
| 2026-04-14 09:22 | 50.04838 | 8.54454 | 576 ft | 141 kts | 252° |
| 2026-04-14 09:22 | 50.04496 | 8.53021 | 382 ft | 140 kts | 251° |
| 2026-04-14 09:22 | 50.04214 | 8.51824 | 361 ft | 80 kts | 250° |
| 2026-04-14 09:22 | 50.04124 | 8.51451 | 358 ft | 1 kts | 249° |
| 2026-04-14 09:23 | 50.04107 | 8.51382 | 359 ft | 13 kts | 249° |
| 2026-04-14 09:23 | 50.04062 | 8.51197 | 353 ft | 23 kts | 249° |
| 2026-04-14 09:23 | 50.03953 | 8.50984 | 349 ft | 27 kts | 220° |
| 2026-04-14 09:23 | 50.03828 | 8.50843 | 344 ft | 16 kts | 188° |
| 2026-04-14 09:24 | 50.03819 | 8.50843 | 342 ft | 0 kts | 177° |
| 2026-04-14 09:24 | 50.03817 | 8.50843 | 342 ft | 2 kts | 176° |
| 2026-04-14 09:24 | 50.03789 | 8.50868 | 349 ft | 8 kts | 133° |
| 2026-04-14 09:25 | 50.03755 | 8.50968 | 345 ft | 12 kts | 117° |
| 2026-04-14 09:25 | 50.03718 | 8.51082 | 350 ft | 12 kts | 117° |
| 2026-04-14 09:25 | 50.03680 | 8.51200 | 352 ft | 13 kts | 116° |
| 2026-04-14 09:25 | 50.03645 | 8.51312 | 357 ft | 10 kts | 115° |
| 2026-04-14 09:26 | 50.03621 | 8.51391 | 359 ft | 6 kts | 115° |
| 2026-04-14 09:26 | 50.03610 | 8.51426 | 360 ft | 3 kts | 115° |
| 2026-04-14 09:26 | 50.03591 | 8.51487 | 364 ft | 10 kts | 115° |
| 2026-04-14 09:26 | 50.03539 | 8.51648 | 363 ft | 17 kts | 118° |
| 2026-04-14 09:27 | 50.03514 | 8.51837 | 364 ft | 20 kts | 86° |
| 2026-04-14 09:27 | 50.03524 | 8.51980 | 368 ft | 1 kts | 79° |
| 2026-04-14 09:27 | 50.03528 | 8.52007 | 363 ft | 4 kts | 79° |
| 2026-04-14 09:27 | 50.03532 | 8.52042 | 365 ft | 6 kts | 79° |
| 2026-04-14 09:28 | 50.03540 | 8.52114 | 370 ft | 7 kts | 82° |
| 2026-04-14 09:28 | 50.03547 | 8.52197 | 372 ft | 8 kts | 82° |
| 2026-04-14 09:28 | 50.03559 | 8.52298 | 375 ft | 10 kts | 70° |
| 2026-04-14 09:28 | 50.03628 | 8.52320 | 373 ft | 11 kts | 341° |
| 2026-04-14 09:29 | 50.03635 | 8.52316 | 372 ft | 0 kts | 340° |